sensor_id;sensor_type;location;lat;lon;timestamp;temperature;humidity
33793;DHT22;20105;48.764;9.178;2022-07-22T00:00:57;19.70;99.90
33793;DHT22;20105;48.764;9.178;2022-07-22T00:03:23;19.70;99.90
33793;DHT22;20105;48.764;9.178;2022-07-22T00:05:48;19.70;99.90
33793;DHT22;20105;48.764;9.178;2022-07-22T00:08:14;19.60;99.90
33793;DHT22;20105;48.764;9.178;2022-07-22T00:10:40;19.60;99.90
33793;DHT22;20105;48.764;9.178;2022-07-22T00:13:06;19.50;99.90
33793;DHT22;20105;48.764;9.178;2022-07-22T00:15:32;19.60;99.90
33793;DHT22;20105;48.764;9.178;2022-07-22T00:17:57;19.70;99.90
33793;DHT22;20105;48.764;9.178;2022-07-22T00:20:23;19.60;99.90
33793;DHT22;20105;48.764;9.178;2022-07-22T00:22:48;19.60;99.90
33793;DHT22;20105;48.764;9.178;2022-07-22T00:25:14;19.50;99.90
33793;DHT22;20105;48.764;9.178;2022-07-22T00:27:40;19.40;99.90
33793;DHT22;20105;48.764;9.178;2022-07-22T00:30:06;19.40;99.90
33793;DHT22;20105;48.764;9.178;2022-07-22T00:32:32;19.40;99.90
33793;DHT22;20105;48.764;9.178;2022-07-22T00:34:57;19.40;99.90
33793;DHT22;20105;48.764;9.178;2022-07-22T00:37:23;19.40;99.90
33793;DHT22;20105;48.764;9.178;2022-07-22T00:39:48;19.30;99.90
33793;DHT22;20105;48.764;9.178;2022-07-22T00:42:14;19.30;99.90
33793;DHT22;20105;48.764;9.178;2022-07-22T00:44:40;19.30;99.90
33793;DHT22;20105;48.764;9.178;2022-07-22T00:47:06;19.30;99.90
33793;DHT22;20105;48.764;9.178;2022-07-22T00:49:32;19.30;99.90
33793;DHT22;20105;48.764;9.178;2022-07-22T00:51:57;19.20;99.90
33793;DHT22;20105;48.764;9.178;2022-07-22T00:54:23;19.20;99.90
33793;DHT22;20105;48.764;9.178;2022-07-22T00:56:49;19.20;99.90
33793;DHT22;20105;48.764;9.178;2022-07-22T00:59:15;19.10;99.90
33793;DHT22;20105;48.764;9.178;2022-07-22T01:01:41;19.10;99.90
33793;DHT22;20105;48.764;9.178;2022-07-22T01:04:07;19.00;99.90
33793;DHT22;20105;48.764;9.178;2022-07-22T01:06:32;19.00;99.90
33793;DHT22;20105;48.764;9.178;2022-07-22T01:08:59;19.10;99.90
33793;DHT22;20105;48.764;9.178;2022-07-22T01:11:25;19.10;99.90
33793;DHT22;20105;48.764;9.178;2022-07-22T01:13:51;19.00;99.90
33793;DHT22;20105;48.764;9.178;2022-07-22T01:16:18;19.00;99.90
33793;DHT22;20105;48.764;9.178;2022-07-22T01:18:45;19.00;99.90
33793;DHT22;20105;48.764;9.178;2022-07-22T01:21:13;19.00;99.90
33793;DHT22;20105;48.764;9.178;2022-07-22T01:23:39;19.00;99.90
33793;DHT22;20105;48.764;9.178;2022-07-22T01:26:05;18.90;99.90
33793;DHT22;20105;48.764;9.178;2022-07-22T01:28:32;18.90;99.90
33793;DHT22;20105;48.764;9.178;2022-07-22T01:30:58;18.90;99.90
33793;DHT22;20105;48.764;9.178;2022-07-22T01:33:24;18.90;99.90
33793;DHT22;20105;48.764;9.178;2022-07-22T01:35:51;18.90;99.90
33793;DHT22;20105;48.764;9.178;2022-07-22T01:38:17;18.90;99.90
33793;DHT22;20105;48.764;9.178;2022-07-22T01:40:45;18.90;99.90
33793;DHT22;20105;48.764;9.178;2022-07-22T01:43:10;18.80;99.90
33793;DHT22;20105;48.764;9.178;2022-07-22T01:45:36;18.80;99.90
33793;DHT22;20105;48.764;9.178;2022-07-22T01:48:03;18.80;99.90
33793;DHT22;20105;48.764;9.178;2022-07-22T01:50:29;18.80;99.90
33793;DHT22;20105;48.764;9.178;2022-07-22T01:52:55;18.70;99.90
33793;DHT22;20105;48.764;9.178;2022-07-22T01:55:21;18.70;99.90
33793;DHT22;20105;48.764;9.178;2022-07-22T01:57:46;18.70;99.90
33793;DHT22;20105;48.764;9.178;2022-07-22T02:00:12;18.70;99.90
33793;DHT22;20105;48.764;9.178;2022-07-22T02:02:38;18.70;99.90
33793;DHT22;20105;48.764;9.178;2022-07-22T02:05:05;18.60;99.90
33793;DHT22;20105;48.764;9.178;2022-07-22T02:07:32;18.60;99.90
33793;DHT22;20105;48.764;9.178;2022-07-22T02:09:57;18.60;99.90
33793;DHT22;20105;48.764;9.178;2022-07-22T02:12:23;18.60;99.90
33793;DHT22;20105;48.764;9.178;2022-07-22T02:14:49;18.50;99.90
33793;DHT22;20105;48.764;9.178;2022-07-22T02:17:15;18.50;99.90
33793;DHT22;20105;48.764;9.178;2022-07-22T02:19:42;18.50;99.90
33793;DHT22;20105;48.764;9.178;2022-07-22T02:22:08;18.40;99.90
33793;DHT22;20105;48.764;9.178;2022-07-22T02:24:34;18.40;99.90
33793;DHT22;20105;48.764;9.178;2022-07-22T02:26:59;18.40;99.90
33793;DHT22;20105;48.764;9.178;2022-07-22T02:29:25;18.40;99.90
33793;DHT22;20105;48.764;9.178;2022-07-22T02:31:51;18.40;99.90
33793;DHT22;20105;48.764;9.178;2022-07-22T02:34:17;18.40;99.90
33793;DHT22;20105;48.764;9.178;2022-07-22T02:36:42;18.40;99.90
33793;DHT22;20105;48.764;9.178;2022-07-22T02:39:08;18.30;99.90
33793;DHT22;20105;48.764;9.178;2022-07-22T02:41:33;18.30;99.90
33793;DHT22;20105;48.764;9.178;2022-07-22T02:43:59;18.30;99.90
33793;DHT22;20105;48.764;9.178;2022-07-22T02:46:26;18.30;99.90
33793;DHT22;20105;48.764;9.178;2022-07-22T02:48:53;18.20;99.90
33793;DHT22;20105;48.764;9.178;2022-07-22T02:51:20;18.20;99.90
33793;DHT22;20105;48.764;9.178;2022-07-22T02:53:46;18.20;99.90
33793;DHT22;20105;48.764;9.178;2022-07-22T02:56:11;18.30;99.90
33793;DHT22;20105;48.764;9.178;2022-07-22T02:58:37;18.30;99.90
33793;DHT22;20105;48.764;9.178;2022-07-22T03:01:03;18.30;99.90
33793;DHT22;20105;48.764;9.178;2022-07-22T03:03:28;18.30;99.90
33793;DHT22;20105;48.764;9.178;2022-07-22T03:05:54;18.40;99.90
33793;DHT22;20105;48.764;9.178;2022-07-22T03:08:19;18.40;99.90
33793;DHT22;20105;48.764;9.178;2022-07-22T03:10:45;18.40;99.90
33793;DHT22;20105;48.764;9.178;2022-07-22T03:13:10;18.30;99.90
33793;DHT22;20105;48.764;9.178;2022-07-22T03:15:39;18.30;99.90
33793;DHT22;20105;48.764;9.178;2022-07-22T03:18:05;18.30;99.90
33793;DHT22;20105;48.764;9.178;2022-07-22T03:20:30;18.30;99.90
33793;DHT22;20105;48.764;9.178;2022-07-22T03:22:56;18.20;99.90
33793;DHT22;20105;48.764;9.178;2022-07-22T03:25:21;18.20;99.90
33793;DHT22;20105;48.764;9.178;2022-07-22T03:27:47;18.20;99.90
33793;DHT22;20105;48.764;9.178;2022-07-22T03:30:13;18.20;99.90
33793;DHT22;20105;48.764;9.178;2022-07-22T03:32:38;18.20;99.90
33793;DHT22;20105;48.764;9.178;2022-07-22T03:35:04;18.10;99.90
33793;DHT22;20105;48.764;9.178;2022-07-22T03:37:30;18.10;99.90
33793;DHT22;20105;48.764;9.178;2022-07-22T03:39:56;18.10;99.90
33793;DHT22;20105;48.764;9.178;2022-07-22T03:42:21;18.10;99.90
33793;DHT22;20105;48.764;9.178;2022-07-22T03:44:47;18.00;99.90
33793;DHT22;20105;48.764;9.178;2022-07-22T03:47:18;18.00;99.90
33793;DHT22;20105;48.764;9.178;2022-07-22T03:49:44;17.90;99.90
33793;DHT22;20105;48.764;9.178;2022-07-22T03:52:09;17.90;99.90
33793;DHT22;20105;48.764;9.178;2022-07-22T03:54:35;17.90;99.90
33793;DHT22;20105;48.764;9.178;2022-07-22T03:57:00;18.00;99.90
33793;DHT22;20105;48.764;9.178;2022-07-22T03:59:26;18.10;99.90
33793;DHT22;20105;48.764;9.178;2022-07-22T04:01:51;18.10;99.90
33793;DHT22;20105;48.764;9.178;2022-07-22T04:04:17;18.10;99.90
33793;DHT22;20105;48.764;9.178;2022-07-22T04:06:42;18.10;99.90
33793;DHT22;20105;48.764;9.178;2022-07-22T04:09:08;18.10;99.90
33793;DHT22;20105;48.764;9.178;2022-07-22T04:11:33;18.10;99.90
33793;DHT22;20105;48.764;9.178;2022-07-22T04:13:59;18.10;99.90
33793;DHT22;20105;48.764;9.178;2022-07-22T04:16:26;18.10;99.90
33793;DHT22;20105;48.764;9.178;2022-07-22T04:18:51;18.10;99.90
33793;DHT22;20105;48.764;9.178;2022-07-22T04:21:17;18.10;99.90
33793;DHT22;20105;48.764;9.178;2022-07-22T04:23:42;18.10;99.90
33793;DHT22;20105;48.764;9.178;2022-07-22T04:26:08;18.10;99.90
33793;DHT22;20105;48.764;9.178;2022-07-22T04:28:34;18.00;99.90
33793;DHT22;20105;48.764;9.178;2022-07-22T04:31:03;18.00;99.90
33793;DHT22;20105;48.764;9.178;2022-07-22T04:33:29;17.90;99.90
33793;DHT22;20105;48.764;9.178;2022-07-22T04:35:55;18.00;99.90
33793;DHT22;20105;48.764;9.178;2022-07-22T04:38:20;18.00;99.90
33793;DHT22;20105;48.764;9.178;2022-07-22T04:40:46;18.00;99.90
33793;DHT22;20105;48.764;9.178;2022-07-22T04:43:11;18.10;99.90
33793;DHT22;20105;48.764;9.178;2022-07-22T04:45:37;18.10;99.90
33793;DHT22;20105;48.764;9.178;2022-07-22T04:48:03;18.10;99.90
33793;DHT22;20105;48.764;9.178;2022-07-22T04:50:28;18.10;99.90
33793;DHT22;20105;48.764;9.178;2022-07-22T04:52:54;18.20;99.90
33793;DHT22;20105;48.764;9.178;2022-07-22T04:55:20;18.20;99.90
33793;DHT22;20105;48.764;9.178;2022-07-22T04:57:45;18.20;99.90
33793;DHT22;20105;48.764;9.178;2022-07-22T05:00:11;18.20;99.90
33793;DHT22;20105;48.764;9.178;2022-07-22T05:02:37;18.30;99.90
33793;DHT22;20105;48.764;9.178;2022-07-22T05:05:03;18.30;99.90
33793;DHT22;20105;48.764;9.178;2022-07-22T05:07:28;18.30;99.90
33793;DHT22;20105;48.764;9.178;2022-07-22T05:09:54;18.40;99.90
33793;DHT22;20105;48.764;9.178;2022-07-22T05:12:19;18.40;99.90
33793;DHT22;20105;48.764;9.178;2022-07-22T05:14:45;18.50;99.90
33793;DHT22;20105;48.764;9.178;2022-07-22T05:17:11;18.50;99.90
33793;DHT22;20105;48.764;9.178;2022-07-22T05:19:40;18.60;99.90
33793;DHT22;20105;48.764;9.178;2022-07-22T05:22:07;18.60;99.90
33793;DHT22;20105;48.764;9.178;2022-07-22T05:24:32;18.70;99.90
33793;DHT22;20105;48.764;9.178;2022-07-22T05:26:58;18.70;99.90
33793;DHT22;20105;48.764;9.178;2022-07-22T05:29:24;18.70;99.90
33793;DHT22;20105;48.764;9.178;2022-07-22T05:31:49;18.70;99.90
33793;DHT22;20105;48.764;9.178;2022-07-22T05:34:15;18.80;99.90
33793;DHT22;20105;48.764;9.178;2022-07-22T05:36:41;18.90;99.90
33793;DHT22;20105;48.764;9.178;2022-07-22T05:39:06;18.90;99.90
33793;DHT22;20105;48.764;9.178;2022-07-22T05:41:32;19.00;99.90
33793;DHT22;20105;48.764;9.178;2022-07-22T05:43:57;19.10;99.90
33793;DHT22;20105;48.764;9.178;2022-07-22T05:46:23;19.10;99.90
33793;DHT22;20105;48.764;9.178;2022-07-22T05:48:49;19.20;99.90
33793;DHT22;20105;48.764;9.178;2022-07-22T05:51:14;19.20;99.90
33793;DHT22;20105;48.764;9.178;2022-07-22T05:53:42;19.30;99.90
33793;DHT22;20105;48.764;9.178;2022-07-22T05:56:09;19.30;99.90
33793;DHT22;20105;48.764;9.178;2022-07-22T05:58:37;19.40;99.90
33793;DHT22;20105;48.764;9.178;2022-07-22T06:01:02;19.50;99.90
33793;DHT22;20105;48.764;9.178;2022-07-22T06:03:28;19.60;99.90
33793;DHT22;20105;48.764;9.178;2022-07-22T06:05:53;19.60;99.90
33793;DHT22;20105;48.764;9.178;2022-07-22T06:08:19;19.70;99.90
33793;DHT22;20105;48.764;9.178;2022-07-22T06:10:45;19.70;99.90
33793;DHT22;20105;48.764;9.178;2022-07-22T06:13:10;19.80;99.90
33793;DHT22;20105;48.764;9.178;2022-07-22T06:15:36;19.90;99.90
33793;DHT22;20105;48.764;9.178;2022-07-22T06:18:01;20.00;99.90
33793;DHT22;20105;48.764;9.178;2022-07-22T06:20:27;20.00;99.90
33793;DHT22;20105;48.764;9.178;2022-07-22T06:22:52;20.10;99.90
33793;DHT22;20105;48.764;9.178;2022-07-22T06:25:18;20.10;99.90
33793;DHT22;20105;48.764;9.178;2022-07-22T06:27:43;20.20;99.90
33793;DHT22;20105;48.764;9.178;2022-07-22T06:30:10;20.30;99.90
33793;DHT22;20105;48.764;9.178;2022-07-22T06:32:35;20.30;99.90
33793;DHT22;20105;48.764;9.178;2022-07-22T06:35:02;20.30;99.90
33793;DHT22;20105;48.764;9.178;2022-07-22T06:37:27;20.40;99.90
33793;DHT22;20105;48.764;9.178;2022-07-22T06:39:53;20.60;99.90
33793;DHT22;20105;48.764;9.178;2022-07-22T06:42:19;20.60;99.90
33793;DHT22;20105;48.764;9.178;2022-07-22T06:44:44;20.70;99.90
33793;DHT22;20105;48.764;9.178;2022-07-22T06:47:10;20.70;99.90
33793;DHT22;20105;48.764;9.178;2022-07-22T06:49:35;20.70;99.90
33793;DHT22;20105;48.764;9.178;2022-07-22T06:52:01;20.80;99.90
33793;DHT22;20105;48.764;9.178;2022-07-22T06:54:27;20.90;99.90
33793;DHT22;20105;48.764;9.178;2022-07-22T06:56:53;21.00;99.90
33793;DHT22;20105;48.764;9.178;2022-07-22T06:59:18;21.10;99.90
33793;DHT22;20105;48.764;9.178;2022-07-22T07:01:44;21.20;99.90
33793;DHT22;20105;48.764;9.178;2022-07-22T07:04:10;21.20;99.90
33793;DHT22;20105;48.764;9.178;2022-07-22T07:06:35;21.40;99.90
33793;DHT22;20105;48.764;9.178;2022-07-22T07:09:02;21.50;99.90
33793;DHT22;20105;48.764;9.178;2022-07-22T07:11:27;21.60;99.90
33793;DHT22;20105;48.764;9.178;2022-07-22T07:13:53;21.70;99.90
33793;DHT22;20105;48.764;9.178;2022-07-22T07:16:19;21.70;99.90
33793;DHT22;20105;48.764;9.178;2022-07-22T07:18:44;21.80;99.90
33793;DHT22;20105;48.764;9.178;2022-07-22T07:21:10;21.90;99.90
33793;DHT22;20105;48.764;9.178;2022-07-22T07:23:36;22.00;99.90
33793;DHT22;20105;48.764;9.178;2022-07-22T07:26:01;22.10;99.90
33793;DHT22;20105;48.764;9.178;2022-07-22T07:28:27;22.10;99.90
33793;DHT22;20105;48.764;9.178;2022-07-22T07:30:52;22.10;99.90
33793;DHT22;20105;48.764;9.178;2022-07-22T07:33:18;22.10;99.90
33793;DHT22;20105;48.764;9.178;2022-07-22T07:35:43;22.20;99.90
33793;DHT22;20105;48.764;9.178;2022-07-22T07:38:09;22.10;99.90
33793;DHT22;20105;48.764;9.178;2022-07-22T07:40:35;22.20;99.90
33793;DHT22;20105;48.764;9.178;2022-07-22T07:43:01;22.40;99.90
33793;DHT22;20105;48.764;9.178;2022-07-22T07:45:26;22.40;99.90
33793;DHT22;20105;48.764;9.178;2022-07-22T07:47:52;22.60;99.90
33793;DHT22;20105;48.764;9.178;2022-07-22T07:50:17;22.80;99.90
33793;DHT22;20105;48.764;9.178;2022-07-22T07:52:45;22.90;99.90
33793;DHT22;20105;48.764;9.178;2022-07-22T07:55:13;22.70;99.90
33793;DHT22;20105;48.764;9.178;2022-07-22T07:57:39;22.70;99.90
33793;DHT22;20105;48.764;9.178;2022-07-22T08:00:08;22.70;99.90
33793;DHT22;20105;48.764;9.178;2022-07-22T08:02:34;22.90;99.90
33793;DHT22;20105;48.764;9.178;2022-07-22T08:04:59;23.10;99.90
33793;DHT22;20105;48.764;9.178;2022-07-22T08:07:27;23.20;99.90
33793;DHT22;20105;48.764;9.178;2022-07-22T08:09:52;23.10;99.90
33793;DHT22;20105;48.764;9.178;2022-07-22T08:12:19;23.20;99.90
33793;DHT22;20105;48.764;9.178;2022-07-22T08:14:44;23.40;99.90
33793;DHT22;20105;48.764;9.178;2022-07-22T08:17:10;23.60;99.80
33793;DHT22;20105;48.764;9.178;2022-07-22T08:19:36;23.70;99.60
33793;DHT22;20105;48.764;9.178;2022-07-22T08:22:02;23.60;99.70
33793;DHT22;20105;48.764;9.178;2022-07-22T08:24:28;23.80;99.70
33793;DHT22;20105;48.764;9.178;2022-07-22T08:26:54;23.90;99.60
33793;DHT22;20105;48.764;9.178;2022-07-22T08:29:19;24.10;98.60
33793;DHT22;20105;48.764;9.178;2022-07-22T08:31:48;24.20;98.40
33793;DHT22;20105;48.764;9.178;2022-07-22T08:34:14;24.20;98.10
33793;DHT22;20105;48.764;9.178;2022-07-22T08:36:39;24.20;98.40
33793;DHT22;20105;48.764;9.178;2022-07-22T08:39:05;24.20;98.40
33793;DHT22;20105;48.764;9.178;2022-07-22T08:41:35;24.30;97.80
33793;DHT22;20105;48.764;9.178;2022-07-22T08:44:03;24.40;97.60
33793;DHT22;20105;48.764;9.178;2022-07-22T08:46:29;24.40;97.50
33793;DHT22;20105;48.764;9.178;2022-07-22T08:48:54;24.60;97.20
33793;DHT22;20105;48.764;9.178;2022-07-22T08:51:21;24.60;97.10
33793;DHT22;20105;48.764;9.178;2022-07-22T08:53:46;24.80;96.50
33793;DHT22;20105;48.764;9.178;2022-07-22T08:56:13;24.80;96.60
33793;DHT22;20105;48.764;9.178;2022-07-22T08:58:39;24.90;96.30
33793;DHT22;20105;48.764;9.178;2022-07-22T09:01:09;24.70;96.70
33793;DHT22;20105;48.764;9.178;2022-07-22T09:03:47;24.80;96.60
33793;DHT22;20105;48.764;9.178;2022-07-22T09:06:15;24.70;96.80
33793;DHT22;20105;48.764;9.178;2022-07-22T09:11:23;25.20;95.70
33793;DHT22;20105;48.764;9.178;2022-07-22T09:13:49;25.40;95.10
33793;DHT22;20105;48.764;9.178;2022-07-22T09:16:15;25.30;95.00
33793;DHT22;20105;48.764;9.178;2022-07-22T09:18:46;25.00;95.80
33793;DHT22;20105;48.764;9.178;2022-07-22T09:21:12;25.20;96.00
33793;DHT22;20105;48.764;9.178;2022-07-22T09:23:41;25.50;94.90
33793;DHT22;20105;48.764;9.178;2022-07-22T09:26:07;25.60;95.20
33793;DHT22;20105;48.764;9.178;2022-07-22T09:28:33;25.60;94.40
33793;DHT22;20105;48.764;9.178;2022-07-22T09:30:58;25.70;94.60
33793;DHT22;20105;48.764;9.178;2022-07-22T09:33:25;25.80;94.00
33793;DHT22;20105;48.764;9.178;2022-07-22T09:35:52;25.80;94.20
33793;DHT22;20105;48.764;9.178;2022-07-22T09:38:26;25.80;94.20
33793;DHT22;20105;48.764;9.178;2022-07-22T09:40:52;25.90;94.10
33793;DHT22;20105;48.764;9.178;2022-07-22T09:43:20;26.20;93.70
33793;DHT22;20105;48.764;9.178;2022-07-22T09:45:50;26.20;93.30
33793;DHT22;20105;48.764;9.178;2022-07-22T09:48:18;26.30;92.90
33793;DHT22;20105;48.764;9.178;2022-07-22T09:50:46;26.20;93.60
33793;DHT22;20105;48.764;9.178;2022-07-22T09:53:12;26.40;92.90
33793;DHT22;20105;48.764;9.178;2022-07-22T09:55:38;26.30;92.90
33793;DHT22;20105;48.764;9.178;2022-07-22T09:58:05;26.30;92.90
33793;DHT22;20105;48.764;9.178;2022-07-22T10:00:35;26.50;91.90
33793;DHT22;20105;48.764;9.178;2022-07-22T10:03:05;26.50;91.70
33793;DHT22;20105;48.764;9.178;2022-07-22T10:05:42;26.60;92.00
33793;DHT22;20105;48.764;9.178;2022-07-22T10:08:08;26.70;91.80
33793;DHT22;20105;48.764;9.178;2022-07-22T10:10:35;26.80;91.60
33793;DHT22;20105;48.764;9.178;2022-07-22T10:13:03;27.00;91.10
33793;DHT22;20105;48.764;9.178;2022-07-22T10:15:31;27.00;91.10
33793;DHT22;20105;48.764;9.178;2022-07-22T10:17:59;27.00;91.20
33793;DHT22;20105;48.764;9.178;2022-07-22T10:20:27;26.90;91.40
33793;DHT22;20105;48.764;9.178;2022-07-22T10:23:14;26.90;92.00
33793;DHT22;20105;48.764;9.178;2022-07-22T10:25:59;27.20;90.90
33793;DHT22;20105;48.764;9.178;2022-07-22T10:30:53;27.20;90.70
33793;DHT22;20105;48.764;9.178;2022-07-22T10:33:21;27.40;91.00
33793;DHT22;20105;48.764;9.178;2022-07-22T10:36:01;27.60;90.50
33793;DHT22;20105;48.764;9.178;2022-07-22T10:38:27;27.70;90.20
33793;DHT22;20105;48.764;9.178;2022-07-22T10:40:57;27.60;90.40
33793;DHT22;20105;48.764;9.178;2022-07-22T10:43:29;27.60;90.20
33793;DHT22;20105;48.764;9.178;2022-07-22T10:46:02;27.40;90.30
33793;DHT22;20105;48.764;9.178;2022-07-22T10:51:20;27.70;90.20
33793;DHT22;20105;48.764;9.178;2022-07-22T10:53:59;27.80;89.70
33793;DHT22;20105;48.764;9.178;2022-07-22T10:56:36;28.00;89.50
33793;DHT22;20105;48.764;9.178;2022-07-22T10:59:11;28.00;89.40
33793;DHT22;20105;48.764;9.178;2022-07-22T11:01:40;27.90;90.10
33793;DHT22;20105;48.764;9.178;2022-07-22T11:04:23;28.00;89.70
33793;DHT22;20105;48.764;9.178;2022-07-22T11:06:54;28.20;89.10
33793;DHT22;20105;48.764;9.178;2022-07-22T11:09:22;28.30;89.00
33793;DHT22;20105;48.764;9.178;2022-07-22T11:11:54;28.10;88.80
33793;DHT22;20105;48.764;9.178;2022-07-22T11:14:28;27.90;89.20
33793;DHT22;20105;48.764;9.178;2022-07-22T11:17:05;27.90;89.00
33793;DHT22;20105;48.764;9.178;2022-07-22T11:19:31;28.00;89.70
33793;DHT22;20105;48.764;9.178;2022-07-22T11:22:05;28.20;88.10
33793;DHT22;20105;48.764;9.178;2022-07-22T11:24:31;28.40;88.30
33793;DHT22;20105;48.764;9.178;2022-07-22T11:26:58;28.60;87.20
33793;DHT22;20105;48.764;9.178;2022-07-22T11:29:36;28.50;86.80
33793;DHT22;20105;48.764;9.178;2022-07-22T11:32:08;28.50;87.00
33793;DHT22;20105;48.764;9.178;2022-07-22T11:34:42;28.80;86.70
33793;DHT22;20105;48.764;9.178;2022-07-22T11:37:11;28.90;87.00
33793;DHT22;20105;48.764;9.178;2022-07-22T11:39:37;29.00;87.00
33793;DHT22;20105;48.764;9.178;2022-07-22T11:42:03;29.00;86.50
33793;DHT22;20105;48.764;9.178;2022-07-22T11:44:32;29.10;86.30
33793;DHT22;20105;48.764;9.178;2022-07-22T11:46:58;29.20;87.30
33793;DHT22;20105;48.764;9.178;2022-07-22T11:49:27;29.40;85.50
33793;DHT22;20105;48.764;9.178;2022-07-22T11:51:54;29.20;85.80
33793;DHT22;20105;48.764;9.178;2022-07-22T11:54:20;29.40;86.10
33793;DHT22;20105;48.764;9.178;2022-07-22T11:56:45;29.60;84.70
33793;DHT22;20105;48.764;9.178;2022-07-22T11:59:13;29.50;84.90
33793;DHT22;20105;48.764;9.178;2022-07-22T12:01:39;29.40;84.20
33793;DHT22;20105;48.764;9.178;2022-07-22T12:04:08;29.40;84.80
33793;DHT22;20105;48.764;9.178;2022-07-22T12:06:35;29.40;84.70
33793;DHT22;20105;48.764;9.178;2022-07-22T12:11:44;29.70;83.60
33793;DHT22;20105;48.764;9.178;2022-07-22T12:14:19;29.90;83.20
33793;DHT22;20105;48.764;9.178;2022-07-22T12:16:55;29.90;83.50
33793;DHT22;20105;48.764;9.178;2022-07-22T12:19:21;29.90;82.30
33793;DHT22;20105;48.764;9.178;2022-07-22T12:21:52;29.90;82.50
33793;DHT22;20105;48.764;9.178;2022-07-22T12:27:15;29.80;83.20
33793;DHT22;20105;48.764;9.178;2022-07-22T12:32:14;30.30;84.10
33793;DHT22;20105;48.764;9.178;2022-07-22T12:34:41;30.40;83.20
33793;DHT22;20105;48.764;9.178;2022-07-22T12:37:23;30.70;82.50
33793;DHT22;20105;48.764;9.178;2022-07-22T12:40:09;30.70;81.80
33793;DHT22;20105;48.764;9.178;2022-07-22T12:42:41;30.70;81.20
33793;DHT22;20105;48.764;9.178;2022-07-22T12:47:52;30.30;82.80
33793;DHT22;20105;48.764;9.178;2022-07-22T12:50:27;30.50;82.30
33793;DHT22;20105;48.764;9.178;2022-07-22T12:53:16;30.50;82.40
33793;DHT22;20105;48.764;9.178;2022-07-22T12:55:46;30.50;82.50
33793;DHT22;20105;48.764;9.178;2022-07-22T12:58:14;30.50;82.80
33793;DHT22;20105;48.764;9.178;2022-07-22T13:00:43;30.40;82.80
33793;DHT22;20105;48.764;9.178;2022-07-22T13:03:08;30.50;82.70
33793;DHT22;20105;48.764;9.178;2022-07-22T13:05:34;30.50;83.00
33793;DHT22;20105;48.764;9.178;2022-07-22T13:08:01;30.50;82.50
33793;DHT22;20105;48.764;9.178;2022-07-22T13:10:27;30.50;82.60
33793;DHT22;20105;48.764;9.178;2022-07-22T13:12:53;30.60;83.40
33793;DHT22;20105;48.764;9.178;2022-07-22T13:15:20;30.80;82.20
33793;DHT22;20105;48.764;9.178;2022-07-22T13:17:49;30.90;81.80
33793;DHT22;20105;48.764;9.178;2022-07-22T13:20:17;31.10;81.50
33793;DHT22;20105;48.764;9.178;2022-07-22T13:22:43;31.10;80.90
33793;DHT22;20105;48.764;9.178;2022-07-22T13:25:11;31.20;81.30
33793;DHT22;20105;48.764;9.178;2022-07-22T13:27:37;31.50;79.80
33793;DHT22;20105;48.764;9.178;2022-07-22T13:30:03;31.40;81.10
33793;DHT22;20105;48.764;9.178;2022-07-22T13:32:29;31.40;79.50
33793;DHT22;20105;48.764;9.178;2022-07-22T13:34:55;31.40;80.10
33793;DHT22;20105;48.764;9.178;2022-07-22T13:37:22;31.50;80.70
33793;DHT22;20105;48.764;9.178;2022-07-22T13:39:50;31.60;80.80
33793;DHT22;20105;48.764;9.178;2022-07-22T13:42:16;31.80;80.00
33793;DHT22;20105;48.764;9.178;2022-07-22T13:44:44;31.70;78.60
33793;DHT22;20105;48.764;9.178;2022-07-22T13:47:10;31.60;79.40
33793;DHT22;20105;48.764;9.178;2022-07-22T13:49:36;31.60;79.20
33793;DHT22;20105;48.764;9.178;2022-07-22T13:52:02;31.50;79.60
33793;DHT22;20105;48.764;9.178;2022-07-22T13:54:31;31.50;79.60
33793;DHT22;20105;48.764;9.178;2022-07-22T13:56:58;31.60;78.50
33793;DHT22;20105;48.764;9.178;2022-07-22T13:59:24;31.60;77.70
33793;DHT22;20105;48.764;9.178;2022-07-22T14:01:50;31.50;79.00
33793;DHT22;20105;48.764;9.178;2022-07-22T14:04:17;31.60;79.50
33793;DHT22;20105;48.764;9.178;2022-07-22T14:06:42;32.00;78.20
33793;DHT22;20105;48.764;9.178;2022-07-22T14:09:08;32.20;77.80
33793;DHT22;20105;48.764;9.178;2022-07-22T14:11:34;32.40;77.90
33793;DHT22;20105;48.764;9.178;2022-07-22T14:14:00;32.40;77.30
33793;DHT22;20105;48.764;9.178;2022-07-22T14:16:26;32.50;77.20
33793;DHT22;20105;48.764;9.178;2022-07-22T14:19:12;32.40;77.50
33793;DHT22;20105;48.764;9.178;2022-07-22T14:21:40;32.80;77.80
33793;DHT22;20105;48.764;9.178;2022-07-22T14:24:06;33.00;78.40
33793;DHT22;20105;48.764;9.178;2022-07-22T14:26:35;32.90;78.00
33793;DHT22;20105;48.764;9.178;2022-07-22T14:29:01;32.60;77.80
33793;DHT22;20105;48.764;9.178;2022-07-22T14:31:27;32.30;78.50
33793;DHT22;20105;48.764;9.178;2022-07-22T14:33:54;32.30;78.30
33793;DHT22;20105;48.764;9.178;2022-07-22T14:36:20;32.40;78.70
33793;DHT22;20105;48.764;9.178;2022-07-22T14:38:46;32.60;79.00
33793;DHT22;20105;48.764;9.178;2022-07-22T14:41:13;32.70;77.30
33793;DHT22;20105;48.764;9.178;2022-07-22T14:43:39;32.80;77.80
33793;DHT22;20105;48.764;9.178;2022-07-22T14:46:06;33.40;76.90
33793;DHT22;20105;48.764;9.178;2022-07-22T14:48:33;33.90;75.60
33793;DHT22;20105;48.764;9.178;2022-07-22T14:50:59;33.60;75.70
33793;DHT22;20105;48.764;9.178;2022-07-22T14:53:24;33.80;76.90
33793;DHT22;20105;48.764;9.178;2022-07-22T14:55:50;33.90;76.50
33793;DHT22;20105;48.764;9.178;2022-07-22T14:58:16;34.10;76.00
33793;DHT22;20105;48.764;9.178;2022-07-22T15:00:45;34.20;75.60
33793;DHT22;20105;48.764;9.178;2022-07-22T15:03:11;34.20;75.80
33793;DHT22;20105;48.764;9.178;2022-07-22T15:05:37;34.30;75.30
33793;DHT22;20105;48.764;9.178;2022-07-22T15:08:05;34.50;76.60
33793;DHT22;20105;48.764;9.178;2022-07-22T15:10:31;34.50;75.80
33793;DHT22;20105;48.764;9.178;2022-07-22T15:12:56;35.00;75.10
33793;DHT22;20105;48.764;9.178;2022-07-22T15:15:22;35.40;73.60
33793;DHT22;20105;48.764;9.178;2022-07-22T15:17:47;35.60;73.70
33793;DHT22;20105;48.764;9.178;2022-07-22T15:20:13;35.60;73.60
33793;DHT22;20105;48.764;9.178;2022-07-22T15:22:40;35.70;73.50
33793;DHT22;20105;48.764;9.178;2022-07-22T15:25:07;35.30;74.50
33793;DHT22;20105;48.764;9.178;2022-07-22T15:27:33;35.00;74.10
33793;DHT22;20105;48.764;9.178;2022-07-22T15:30:06;35.00;75.10
33793;DHT22;20105;48.764;9.178;2022-07-22T15:32:35;35.30;74.50
33793;DHT22;20105;48.764;9.178;2022-07-22T15:35:02;35.20;73.90
33793;DHT22;20105;48.764;9.178;2022-07-22T15:37:27;34.50;74.70
33793;DHT22;20105;48.764;9.178;2022-07-22T15:39:57;34.20;75.10
33793;DHT22;20105;48.764;9.178;2022-07-22T15:42:24;34.80;74.90
33793;DHT22;20105;48.764;9.178;2022-07-22T15:44:49;35.30;74.30
33793;DHT22;20105;48.764;9.178;2022-07-22T15:47:15;35.70;73.10